Time;durP1;ratioP1;P1;durP2;ratioP2;P2;SDS_P1;SDS_P2;PMS_P1;PMS_P2;Temp;Humidity;BMP_temperature;BMP_pressure;BME280_temperature;BME280_humidity;BME280_pressure;Samples;Min_cycle;Max_cycle;Signal;HPM_P1;HPM_P2
2022/08/03 08:51:18;;;;;;;2.40;2.10;;;22.10;61.60;;;;;;6073858;22;1453549;-89
2022/08/03 08:53:46;;;;;;;2.35;2.15;;;22.10;61.70;;;;;;6260039;22;20534;-90
2022/08/03 08:56:15;;;;;;;2.20;2.00;;;22.10;61.80;;;;;;6212119;23;20139;-88
2022/08/03 08:58:49;;;;;;;2.30;2.10;;;22.10;61.80;;;;;;6237017;22;20128;-89
2022/08/03 09:01:17;;;;;;;2.00;1.90;;;22.20;61.70;;;;;;6218249;22;20155;-89
2022/08/03 09:03:52;;;;;;;2.25;2.00;;;22.10;61.90;;;;;;6217505;23;20151;-88
2022/08/03 09:06:18;;;;;;;2.38;2.17;;;22.20;61.70;;;;;;6221701;22;20164;-89
2022/08/03 09:08:51;;;;;;;2.33;2.13;;;22.10;62.00;;;;;;6202093;23;20596;-88
2022/08/03 09:11:34;;;;;;;;;;;;;;;;;;;;;
2022/08/03 09:14:00;;;;;;;2.13;2.00;;;22.20;61.80;;;;;;6102863;23;20233;-90
2022/08/03 09:17:04;;;;;;;2.20;2.00;;;22.20;62.10;;;;;;6088812;23;20160;-89
2022/08/03 09:19:41;;;;;;;2.40;2.20;;;22.20;62.00;;;;;;6135574;23;20155;-89
2022/08/03 09:25:26;;;;;;;2.30;2.10;;;22.20;62.20;;;;;;6080562;23;20165;-89
2022/08/03 09:28:21;;;;;;;2.45;2.20;;;22.20;62.10;;;;;;5963965;23;20626;-90
2022/08/03 09:31:05;;;;;;;2.28;2.08;;;22.20;62.10;;;;;;5907436;24;20193;-90
2022/08/03 09:33:51;;;;;;;2.40;2.20;;;22.20;62.10;;;;;;5834120;24;20230;-89
2022/08/03 09:36:42;;;;;;;2.42;2.22;;;22.20;62.20;;;;;;5814281;24;20165;-89
2022/08/03 09:39:11;;;;;;;2.38;2.17;;;22.20;62.30;;;;;;5834238;24;20254;-88
2022/08/03 09:42:26;;;;;;;2.42;2.22;;;22.30;62.10;;;;;;5812329;24;20292;-89
2022/08/03 09:44:52;;;;;;;2.45;2.25;;;22.30;62.10;;;;;;5840576;24;20174;-89
2022/08/03 09:47:35;;;;;;;2.50;2.30;;;22.30;62.20;;;;;;5827591;24;20160;-89
2022/08/03 09:50:06;;;;;;;2.30;2.10;;;22.30;62.30;;;;;;5856165;24;20227;-88
2022/08/03 09:52:35;;;;;;;2.55;2.30;;;22.30;62.50;;;;;;5890224;24;20204;-88
2022/08/03 09:55:08;;;;;;;2.35;2.15;;;22.30;62.50;;;;;;5958864;23;20161;-89
2022/08/03 09:57:44;;;;;;;2.40;2.20;;;22.30;62.60;;;;;;6018592;23;20153;-88
2022/08/03 10:00:12;;;;;;;2.22;2.03;;;22.20;62.70;;;;;;6031701;23;20150;-88
2022/08/03 10:02:39;;;;;;;2.28;2.10;;;22.30;62.70;;;;;;6008303;23;20157;-90
2022/08/03 10:05:15;;;;;;;2.33;2.13;;;22.30;63.00;;;;;;6026141;23;20183;-89
2022/08/03 10:07:44;;;;;;;2.65;2.40;;;22.40;62.70;;;;;;5992726;23;20250;-87
2022/08/03 10:10:19;;;;;;;2.30;2.10;;;22.40;62.60;;;;;;5970074;23;20232;-90
2022/08/03 10:12:47;;;;;;;2.30;2.10;;;22.40;62.70;;;;;;5993590;23;20166;-90
2022/08/03 10:15:15;;;;;;;2.28;2.08;;;22.40;62.70;;;;;;5970293;23;20165;-89
2022/08/03 10:17:44;;;;;;;2.35;2.15;;;22.50;62.60;;;;;;5985583;23;20153;-90
2022/08/03 10:20:10;;;;;;;2.47;2.28;;;22.40;62.30;;;;;;6135633;23;20152;-89
2022/08/03 10:22:36;;;;;;;2.17;2.00;;;22.40;62.70;;;;;;6111729;23;20152;-89
2022/08/03 10:25:08;;;;;;;2.25;2.05;;;22.40;63.70;;;;;;6110909;23;20163;-89
2022/08/03 10:27:37;;;;;;;2.40;2.20;;;22.50;62.80;;;;;;6108842;23;20151;-89
2022/08/03 10:30:06;;;;;;;2.40;2.20;;;22.40;62.70;;;;;;6112101;23;20152;-87
2022/08/03 10:32:44;;;;;;;2.15;2.05;;;22.50;62.80;;;;;;6148636;23;20182;-89
2022/08/03 10:35:13;;;;;;;2.40;2.20;;;22.50;62.70;;;;;;6145835;23;20239;-89
2022/08/03 10:37:48;;;;;;;2.45;2.25;;;22.50;62.70;;;;;;6143075;23;20142;-91
2022/08/03 10:40:15;;;;;;;2.50;2.30;;;22.50;62.90;;;;;;6146697;23;20150;-88
2022/08/03 10:42:43;;;;;;;2.53;2.33;;;22.50;62.90;;;;;;6143849;23;20150;-89
2022/08/03 10:45:17;;;;;;;2.50;2.30;;;22.50;63.10;;;;;;6143336;23;20150;-89
2022/08/03 10:47:45;;;;;;;2.65;2.45;;;22.50;63.10;;;;;;6168154;23;20512;-89
2022/08/03 10:50:11;;;;;;;2.55;2.30;;;22.50;63.60;;;;;;6135328;23;20146;-88
2022/08/03 10:52:56;;;;;;;2.40;2.20;;;22.50;63.20;;;;;;6222526;22;20196;-90
2022/08/03 10:58:50;;;;;;;2.38;2.17;;;22.50;63.20;;;;;;6286642;22;20594;-89
2022/08/03 11:01:16;;;;;;;2.28;2.08;;;22.50;63.20;;;;;;6282011;22;20168;-89
2022/08/03 11:04:12;;;;;;;2.20;2.10;;;22.50;63.30;;;;;;6232489;22;20145;-90
2022/08/03 11:06:38;;;;;;;2.40;2.20;;;22.60;63.10;;;;;;6264374;22;20144;-90
2022/08/03 11:09:15;;;;;;;2.53;2.30;;;22.60;63.10;;;;;;6233844;22;20585;-89
2022/08/03 11:11:46;;;;;;;2.50;2.30;;;22.60;63.30;;;;;;6234977;22;20178;-90
2022/08/03 11:14:17;;;;;;;2.35;2.15;;;22.60;63.40;;;;;;6235991;22;20199;-88
2022/08/03 11:16:48;;;;;;;2.30;2.10;;;22.60;63.50;;;;;;6260563;22;20145;-88
2022/08/03 11:19:16;;;;;;;2.50;2.30;;;22.50;63.50;;;;;;6256003;22;20129;-90
2022/08/03 11:21:52;;;;;;;2.25;2.05;;;22.60;63.50;;;;;;6229017;22;20155;-91
2022/08/03 11:24:55;;;;;;;2.50;2.30;;;22.50;63.50;;;;;;6254419;22;20171;-90
2022/08/03 11:27:27;;;;;;;3.60;2.75;;;22.50;63.60;;;;;;6280676;22;20143;-90
2022/08/03 11:30:01;;;;;;;2.42;2.22;;;22.60;63.70;;;;;;6230430;22;20199;-89
2022/08/03 11:32:42;;;;;;;2.50;2.30;;;22.60;63.70;;;;;;6232951;22;20199;-88
2022/08/03 11:35:15;;;;;;;2.50;2.30;;;22.60;63.90;;;;;;6280403;22;20141;-88
2022/08/03 11:38:03;;;;;;;2.60;2.40;;;22.60;63.90;;;;;;6230895;22;20455;-90
2022/08/03 11:40:48;;;;;;;2.30;2.10;;;22.60;63.90;;;;;;6235847;22;20325;-90
2022/08/03 11:43:44;;;;;;;2.60;2.40;;;22.60;63.90;;;;;;6234460;22;20576;-90
2022/08/03 11:46:16;;;;;;;2.20;2.00;;;22.60;64.00;;;;;;6235727;22;20532;-90
2022/08/03 11:48:43;;;;;;;2.40;2.20;;;22.70;64.70;;;;;;6230344;22;20141;-91
2022/08/03 11:51:23;;;;;;;2.50;2.30;;;22.80;63.70;;;;;;6204115;23;20218;-91
2022/08/03 11:53:52;;;;;;;2.45;2.20;;;22.70;63.60;;;;;;6208833;23;20586;-89
2022/08/03 11:56:19;;;;;;;2.45;2.20;;;22.70;63.80;;;;;;6233073;22;20150;-90
2022/08/03 11:58:51;;;;;;;2.33;2.13;;;22.70;64.10;;;;;;6233686;22;20217;-90
2022/08/03 12:01:24;;;;;;;2.40;2.20;;;22.70;64.00;;;;;;6233078;22;20231;-89
2022/08/03 12:03:50;;;;;;;2.67;2.20;;;22.60;64.20;;;;;;6232466;23;20182;-90
2022/08/03 12:06:16;;;;;;;2.45;2.25;;;22.70;64.10;;;;;;6208668;23;20193;-89
2022/08/03 12:08:43;;;;;;;2.50;2.30;;;22.70;64.20;;;;;;6209255;23;20200;-89
2022/08/03 12:11:13;;;;;;;2.60;2.40;;;22.70;64.30;;;;;;6233444;22;20171;-89
2022/08/03 12:13:44;;;;;;;2.50;2.30;;;22.60;64.40;;;;;;6235163;22;20140;-89
2022/08/03 12:16:10;;;;;;;3.00;2.70;;;22.60;64.40;;;;;;6232918;22;20656;-88
2022/08/03 12:18:35;;;;;;;2.30;2.10;;;22.60;64.50;;;;;;6207099;23;20139;-89
2022/08/03 12:21:05;;;;;;;2.67;2.47;;;22.70;64.70;;;;;;6232108;22;20147;-88
2022/08/03 12:23:32;;;;;;;2.47;2.28;;;22.70;64.60;;;;;;6208163;23;20147;-89
2022/08/03 12:26:02;;;;;;;2.50;2.30;;;22.70;64.60;;;;;;6236129;22;20171;-89
2022/08/03 12:28:27;;;;;;;2.63;2.42;;;22.80;64.60;;;;;;6234170;22;20185;-91
2022/08/03 12:30:54;;;;;;;2.88;2.47;;;22.80;64.50;;;;;;6231948;22;20171;-89
2022/08/03 12:33:22;;;;;;;2.60;2.40;;;22.80;64.60;;;;;;6206729;23;20143;-88
2022/08/03 12:37:02;;;;;;;2.50;2.30;;;22.80;64.60;;;;;;6238642;22;20163;-89
2022/08/03 12:39:16;;;;;;;2.63;2.40;;;22.80;64.60;;;;;;6192584;22;20464;-90
2022/08/03 12:41:52;;;;;;;2.60;2.40;;;22.80;64.60;;;;;;6209005;23;20155;-89
2022/08/03 12:44:35;;;;;;;2.60;2.40;;;22.80;64.80;;;;;;6233909;22;20238;-89
2022/08/03 12:55:33;;;;;;;;;;;;;;;;;;;;;
2022/08/03 12:58:32;;;;;;;2.42;2.22;;;22.90;64.70;;;;;;5875347;24;20213;-90
2022/08/03 13:01:08;;;;;;;2.60;2.40;;;22.90;65.20;;;;;;5800217;24;20163;-89
2022/08/03 13:03:42;;;;;;;2.55;2.35;;;22.90;65.00;;;;;;5853006;24;20234;-91
2022/08/03 13:06:32;;;;;;;2.53;2.33;;;22.90;64.90;;;;;;5802525;24;20244;-90
